sensor_id;sensor_type;location;lat;lon;timestamp;P1;durP1;ratioP1;P2;durP2;ratioP2
12848;SDS011;6493;50.928;7.172;2023-12-20T00:03:00;1.63;;;1.53;;
12848;SDS011;6493;50.928;7.172;2023-12-20T00:08:06;1.10;;;1.03;;
12848;SDS011;6493;50.928;7.172;2023-12-20T00:13:10;1.30;;;1.20;;
12848;SDS011;6493;50.928;7.172;2023-12-20T00:18:14;1.30;;;1.20;;
12848;SDS011;6493;50.928;7.172;2023-12-20T00:23:19;1.20;;;1.20;;
12848;SDS011;6493;50.928;7.172;2023-12-20T00:28:25;1.10;;;1.00;;
12848;SDS011;6493;50.928;7.172;2023-12-20T00:33:29;1.30;;;1.20;;
12848;SDS011;6493;50.928;7.172;2023-12-20T00:38:34;1.20;;;1.10;;
12848;SDS011;6493;50.928;7.172;2023-12-20T00:43:41;1.40;;;1.30;;
12848;SDS011;6493;50.928;7.172;2023-12-20T00:48:45;1.60;;;1.50;;
12848;SDS011;6493;50.928;7.172;2023-12-20T00:53:50;1.80;;;1.70;;
12848;SDS011;6493;50.928;7.172;2023-12-20T00:58:57;1.20;;;1.10;;
12848;SDS011;6493;50.928;7.172;2023-12-20T01:04:01;1.37;;;1.00;;
12848;SDS011;6493;50.928;7.172;2023-12-20T01:09:06;0.80;;;0.80;;
12848;SDS011;6493;50.928;7.172;2023-12-20T01:14:10;1.27;;;1.17;;
12848;SDS011;6493;50.928;7.172;2023-12-20T01:19:14;1.77;;;1.23;;
12848;SDS011;6493;50.928;7.172;2023-12-20T01:24:19;1.37;;;1.27;;
12848;SDS011;6493;50.928;7.172;2023-12-20T01:29:23;1.30;;;1.20;;
12848;SDS011;6493;50.928;7.172;2023-12-20T01:34:27;1.30;;;1.20;;
12848;SDS011;6493;50.928;7.172;2023-12-20T01:39:33;1.10;;;1.00;;
12848;SDS011;6493;50.928;7.172;2023-12-20T01:44:36;3.00;;;1.40;;
12848;SDS011;6493;50.928;7.172;2023-12-20T01:49:40;1.27;;;1.10;;
12848;SDS011;6493;50.928;7.172;2023-12-20T01:54:45;1.10;;;1.00;;
12848;SDS011;6493;50.928;7.172;2023-12-20T01:59:50;1.43;;;1.20;;
12848;SDS011;6493;50.928;7.172;2023-12-20T02:04:54;2.00;;;1.80;;
12848;SDS011;6493;50.928;7.172;2023-12-20T02:10:00;1.63;;;1.53;;
12848;SDS011;6493;50.928;7.172;2023-12-20T02:15:04;1.40;;;1.27;;
12848;SDS011;6493;50.928;7.172;2023-12-20T02:20:09;4.87;;;2.10;;
12848;SDS011;6493;50.928;7.172;2023-12-20T02:25:15;1.77;;;1.67;;
12848;SDS011;6493;50.928;7.172;2023-12-20T02:30:19;2.50;;;1.83;;
12848;SDS011;6493;50.928;7.172;2023-12-20T02:35:22;2.57;;;1.83;;
12848;SDS011;6493;50.928;7.172;2023-12-20T02:40:27;1.90;;;1.80;;
12848;SDS011;6493;50.928;7.172;2023-12-20T02:45:31;2.60;;;2.33;;
12848;SDS011;6493;50.928;7.172;2023-12-20T02:50:35;3.73;;;2.17;;
12848;SDS011;6493;50.928;7.172;2023-12-20T02:55:43;2.57;;;2.07;;
12848;SDS011;6493;50.928;7.172;2023-12-20T03:00:47;2.33;;;1.63;;
12848;SDS011;6493;50.928;7.172;2023-12-20T03:05:51;2.87;;;1.67;;
12848;SDS011;6493;50.928;7.172;2023-12-20T03:10:56;1.33;;;1.23;;
12848;SDS011;6493;50.928;7.172;2023-12-20T03:16:05;3.13;;;1.43;;
12848;SDS011;6493;50.928;7.172;2023-12-20T03:21:11;1.73;;;1.20;;
12848;SDS011;6493;50.928;7.172;2023-12-20T03:26:16;2.00;;;1.10;;
12848;SDS011;6493;50.928;7.172;2023-12-20T03:31:21;3.10;;;1.00;;
12848;SDS011;6493;50.928;7.172;2023-12-20T03:36:25;1.97;;;1.00;;
12848;SDS011;6493;50.928;7.172;2023-12-20T03:41:30;1.97;;;1.20;;
12848;SDS011;6493;50.928;7.172;2023-12-20T03:46:34;1.97;;;0.70;;
12848;SDS011;6493;50.928;7.172;2023-12-20T03:51:37;2.43;;;0.80;;
12848;SDS011;6493;50.928;7.172;2023-12-20T03:56:42;2.00;;;0.80;;
12848;SDS011;6493;50.928;7.172;2023-12-20T04:01:46;1.87;;;1.00;;
12848;SDS011;6493;50.928;7.172;2023-12-20T04:06:50;2.63;;;0.60;;
12848;SDS011;6493;50.928;7.172;2023-12-20T04:11:55;1.57;;;0.80;;
12848;SDS011;6493;50.928;7.172;2023-12-20T04:16:59;0.93;;;0.53;;
12848;SDS011;6493;50.928;7.172;2023-12-20T04:22:03;1.67;;;0.70;;
12848;SDS011;6493;50.928;7.172;2023-12-20T04:27:08;1.40;;;0.80;;
12848;SDS011;6493;50.928;7.172;2023-12-20T04:32:12;1.40;;;0.80;;
12848;SDS011;6493;50.928;7.172;2023-12-20T04:37:15;2.17;;;0.80;;
12848;SDS011;6493;50.928;7.172;2023-12-20T04:42:20;1.97;;;0.80;;
12848;SDS011;6493;50.928;7.172;2023-12-20T04:47:24;1.70;;;0.80;;
12848;SDS011;6493;50.928;7.172;2023-12-20T04:52:27;3.47;;;1.00;;
12848;SDS011;6493;50.928;7.172;2023-12-20T04:57:33;1.77;;;0.97;;
12848;SDS011;6493;50.928;7.172;2023-12-20T05:02:37;2.20;;;0.60;;
12848;SDS011;6493;50.928;7.172;2023-12-20T05:07:41;1.63;;;0.80;;
12848;SDS011;6493;50.928;7.172;2023-12-20T05:12:47;1.33;;;0.70;;
12848;SDS011;6493;50.928;7.172;2023-12-20T05:17:50;0.70;;;0.47;;
12848;SDS011;6493;50.928;7.172;2023-12-20T05:22:54;3.60;;;0.60;;
12848;SDS011;6493;50.928;7.172;2023-12-20T05:27:59;1.70;;;0.80;;
12848;SDS011;6493;50.928;7.172;2023-12-20T05:33:03;1.27;;;0.80;;
12848;SDS011;6493;50.928;7.172;2023-12-20T05:38:07;1.97;;;0.90;;
12848;SDS011;6493;50.928;7.172;2023-12-20T05:43:12;1.93;;;0.80;;
12848;SDS011;6493;50.928;7.172;2023-12-20T05:48:15;4.53;;;1.00;;
12848;SDS011;6493;50.928;7.172;2023-12-20T05:53:19;3.07;;;0.80;;
12848;SDS011;6493;50.928;7.172;2023-12-20T05:58:24;3.77;;;1.20;;
12848;SDS011;6493;50.928;7.172;2023-12-20T06:03:29;3.03;;;0.90;;
12848;SDS011;6493;50.928;7.172;2023-12-20T06:08:32;2.53;;;0.93;;
12848;SDS011;6493;50.928;7.172;2023-12-20T06:13:37;4.07;;;1.20;;
12848;SDS011;6493;50.928;7.172;2023-12-20T06:18:41;4.73;;;1.40;;
12848;SDS011;6493;50.928;7.172;2023-12-20T06:23:45;4.07;;;1.10;;
12848;SDS011;6493;50.928;7.172;2023-12-20T06:28:50;2.50;;;1.10;;
12848;SDS011;6493;50.928;7.172;2023-12-20T06:33:54;3.53;;;1.20;;
12848;SDS011;6493;50.928;7.172;2023-12-20T06:39:00;3.53;;;0.87;;
12848;SDS011;6493;50.928;7.172;2023-12-20T06:44:05;6.83;;;1.30;;
12848;SDS011;6493;50.928;7.172;2023-12-20T06:49:09;3.67;;;1.20;;
12848;SDS011;6493;50.928;7.172;2023-12-20T06:54:14;3.30;;;0.97;;
12848;SDS011;6493;50.928;7.172;2023-12-20T06:59:19;5.33;;;1.83;;
12848;SDS011;6493;50.928;7.172;2023-12-20T07:04:22;3.63;;;1.30;;
12848;SDS011;6493;50.928;7.172;2023-12-20T07:09:26;2.43;;;1.20;;
12848;SDS011;6493;50.928;7.172;2023-12-20T07:14:31;3.57;;;1.30;;
12848;SDS011;6493;50.928;7.172;2023-12-20T07:19:35;2.03;;;1.10;;
12848;SDS011;6493;50.928;7.172;2023-12-20T07:24:39;2.73;;;1.20;;
12848;SDS011;6493;50.928;7.172;2023-12-20T07:29:44;2.13;;;1.20;;
12848;SDS011;6493;50.928;7.172;2023-12-20T07:34:49;2.83;;;1.40;;
12848;SDS011;6493;50.928;7.172;2023-12-20T07:39:53;3.83;;;1.67;;
12848;SDS011;6493;50.928;7.172;2023-12-20T07:44:58;2.53;;;0.87;;
12848;SDS011;6493;50.928;7.172;2023-12-20T07:50:02;2.23;;;1.00;;
12848;SDS011;6493;50.928;7.172;2023-12-20T07:55:06;2.70;;;0.90;;
12848;SDS011;6493;50.928;7.172;2023-12-20T08:00:12;3.77;;;1.30;;
12848;SDS011;6493;50.928;7.172;2023-12-20T08:05:17;2.57;;;1.13;;
12848;SDS011;6493;50.928;7.172;2023-12-20T08:10:20;4.53;;;1.33;;
12848;SDS011;6493;50.928;7.172;2023-12-20T08:15:26;2.60;;;1.50;;
12848;SDS011;6493;50.928;7.172;2023-12-20T08:20:30;2.97;;;1.30;;
12848;SDS011;6493;50.928;7.172;2023-12-20T08:25:41;3.40;;;1.80;;
12848;SDS011;6493;50.928;7.172;2023-12-20T08:30:47;5.37;;;1.63;;
12848;SDS011;6493;50.928;7.172;2023-12-20T08:35:50;4.17;;;1.50;;
12848;SDS011;6493;50.928;7.172;2023-12-20T08:40:54;3.97;;;1.27;;
12848;SDS011;6493;50.928;7.172;2023-12-20T08:45:59;3.73;;;1.37;;
12848;SDS011;6493;50.928;7.172;2023-12-20T08:51:03;2.60;;;1.10;;
12848;SDS011;6493;50.928;7.172;2023-12-20T08:56:11;4.83;;;1.50;;
12848;SDS011;6493;50.928;7.172;2023-12-20T09:01:16;2.43;;;1.13;;
12848;SDS011;6493;50.928;7.172;2023-12-20T09:06:20;5.47;;;1.80;;
12848;SDS011;6493;50.928;7.172;2023-12-20T09:11:24;3.03;;;1.33;;
12848;SDS011;6493;50.928;7.172;2023-12-20T09:16:29;3.37;;;1.60;;
12848;SDS011;6493;50.928;7.172;2023-12-20T09:21:33;3.67;;;1.60;;
12848;SDS011;6493;50.928;7.172;2023-12-20T09:26:37;1.57;;;0.97;;
12848;SDS011;6493;50.928;7.172;2023-12-20T09:31:43;2.67;;;1.50;;
12848;SDS011;6493;50.928;7.172;2023-12-20T09:36:48;2.53;;;1.57;;
12848;SDS011;6493;50.928;7.172;2023-12-20T09:41:56;3.03;;;1.23;;
12848;SDS011;6493;50.928;7.172;2023-12-20T09:47:05;4.03;;;1.17;;
12848;SDS011;6493;50.928;7.172;2023-12-20T09:52:10;2.30;;;1.23;;
12848;SDS011;6493;50.928;7.172;2023-12-20T09:57:16;3.43;;;1.43;;
12848;SDS011;6493;50.928;7.172;2023-12-20T10:02:21;2.30;;;1.00;;
12848;SDS011;6493;50.928;7.172;2023-12-20T10:07:29;1.63;;;0.77;;
12848;SDS011;6493;50.928;7.172;2023-12-20T10:12:33;3.27;;;1.33;;
12848;SDS011;6493;50.928;7.172;2023-12-20T10:17:38;2.90;;;1.50;;
12848;SDS011;6493;50.928;7.172;2023-12-20T10:22:43;3.70;;;1.23;;
12848;SDS011;6493;50.928;7.172;2023-12-20T10:27:49;3.57;;;1.23;;
12848;SDS011;6493;50.928;7.172;2023-12-20T10:32:56;4.63;;;1.20;;
12848;SDS011;6493;50.928;7.172;2023-12-20T10:38:00;1.83;;;0.83;;
12848;SDS011;6493;50.928;7.172;2023-12-20T10:43:07;3.27;;;1.30;;
12848;SDS011;6493;50.928;7.172;2023-12-20T10:48:14;3.50;;;1.17;;
12848;SDS011;6493;50.928;7.172;2023-12-20T10:53:19;2.37;;;1.10;;
12848;SDS011;6493;50.928;7.172;2023-12-20T10:58:24;3.97;;;1.10;;
12848;SDS011;6493;50.928;7.172;2023-12-20T11:03:32;4.30;;;1.27;;
12848;SDS011;6493;50.928;7.172;2023-12-20T11:08:39;4.67;;;1.70;;
12848;SDS011;6493;50.928;7.172;2023-12-20T11:13:53;3.00;;;1.37;;
12848;SDS011;6493;50.928;7.172;2023-12-20T11:19:05;2.40;;;1.07;;
12848;SDS011;6493;50.928;7.172;2023-12-20T11:24:10;3.00;;;1.00;;
12848;SDS011;6493;50.928;7.172;2023-12-20T11:29:29;4.43;;;1.20;;
12848;SDS011;6493;50.928;7.172;2023-12-20T11:34:36;4.60;;;1.43;;
12848;SDS011;6493;50.928;7.172;2023-12-20T11:39:41;5.20;;;1.13;;
12848;SDS011;6493;50.928;7.172;2023-12-20T11:44:47;6.07;;;1.83;;
12848;SDS011;6493;50.928;7.172;2023-12-20T11:49:52;2.13;;;1.03;;
12848;SDS011;6493;50.928;7.172;2023-12-20T11:54:58;3.20;;;1.20;;
12848;SDS011;6493;50.928;7.172;2023-12-20T12:00:02;3.23;;;0.90;;
12848;SDS011;6493;50.928;7.172;2023-12-20T12:05:14;2.63;;;1.40;;
12848;SDS011;6493;50.928;7.172;2023-12-20T12:10:18;4.30;;;1.33;;
12848;SDS011;6493;50.928;7.172;2023-12-20T12:15:21;3.57;;;1.50;;
12848;SDS011;6493;50.928;7.172;2023-12-20T12:20:26;3.93;;;1.10;;
12848;SDS011;6493;50.928;7.172;2023-12-20T12:25:31;3.63;;;1.40;;
12848;SDS011;6493;50.928;7.172;2023-12-20T12:30:36;4.33;;;1.47;;
12848;SDS011;6493;50.928;7.172;2023-12-20T12:35:52;1.83;;;0.90;;
12848;SDS011;6493;50.928;7.172;2023-12-20T12:40:56;1.50;;;1.00;;
12848;SDS011;6493;50.928;7.172;2023-12-20T12:46:00;1.80;;;1.00;;
12848;SDS011;6493;50.928;7.172;2023-12-20T12:51:05;1.20;;;0.97;;
12848;SDS011;6493;50.928;7.172;2023-12-20T12:56:14;3.63;;;1.20;;
12848;SDS011;6493;50.928;7.172;2023-12-20T13:01:18;1.97;;;0.80;;
12848;SDS011;6493;50.928;7.172;2023-12-20T13:06:23;2.47;;;0.90;;
12848;SDS011;6493;50.928;7.172;2023-12-20T13:11:27;3.37;;;1.30;;
12848;SDS011;6493;50.928;7.172;2023-12-20T13:16:33;2.07;;;1.07;;
12848;SDS011;6493;50.928;7.172;2023-12-20T13:21:39;3.03;;;1.33;;
12848;SDS011;6493;50.928;7.172;2023-12-20T13:26:43;2.93;;;1.30;;
12848;SDS011;6493;50.928;7.172;2023-12-20T13:31:46;3.87;;;1.40;;
12848;SDS011;6493;50.928;7.172;2023-12-20T13:36:52;5.57;;;1.30;;
12848;SDS011;6493;50.928;7.172;2023-12-20T13:41:56;3.37;;;1.10;;
12848;SDS011;6493;50.928;7.172;2023-12-20T13:47:02;4.23;;;1.27;;
12848;SDS011;6493;50.928;7.172;2023-12-20T13:52:07;4.60;;;1.50;;
12848;SDS011;6493;50.928;7.172;2023-12-20T13:57:11;4.20;;;1.90;;
12848;SDS011;6493;50.928;7.172;2023-12-20T14:02:32;2.53;;;1.20;;
12848;SDS011;6493;50.928;7.172;2023-12-20T14:07:37;2.07;;;1.00;;
12848;SDS011;6493;50.928;7.172;2023-12-20T14:12:41;1.10;;;0.80;;
12848;SDS011;6493;50.928;7.172;2023-12-20T14:17:47;1.53;;;1.10;;
12848;SDS011;6493;50.928;7.172;2023-12-20T14:22:52;2.60;;;0.90;;
12848;SDS011;6493;50.928;7.172;2023-12-20T14:27:57;1.30;;;1.00;;
12848;SDS011;6493;50.928;7.172;2023-12-20T14:33:01;2.73;;;1.07;;
12848;SDS011;6493;50.928;7.172;2023-12-20T14:38:07;3.43;;;1.27;;
12848;SDS011;6493;50.928;7.172;2023-12-20T14:43:10;3.43;;;1.50;;
12848;SDS011;6493;50.928;7.172;2023-12-20T14:48:14;4.23;;;1.37;;
12848;SDS011;6493;50.928;7.172;2023-12-20T14:53:20;2.10;;;1.10;;
12848;SDS011;6493;50.928;7.172;2023-12-20T14:58:24;3.53;;;1.00;;
12848;SDS011;6493;50.928;7.172;2023-12-20T15:03:28;3.33;;;1.30;;
12848;SDS011;6493;50.928;7.172;2023-12-20T15:08:34;2.80;;;0.87;;
12848;SDS011;6493;50.928;7.172;2023-12-20T15:13:38;3.77;;;1.27;;
12848;SDS011;6493;50.928;7.172;2023-12-20T15:18:42;2.87;;;1.20;;
12848;SDS011;6493;50.928;7.172;2023-12-20T15:23:47;1.20;;;1.00;;
12848;SDS011;6493;50.928;7.172;2023-12-20T15:28:54;1.73;;;0.90;;
12848;SDS011;6493;50.928;7.172;2023-12-20T15:33:58;2.00;;;1.00;;
12848;SDS011;6493;50.928;7.172;2023-12-20T15:39:04;2.17;;;1.10;;
12848;SDS011;6493;50.928;7.172;2023-12-20T15:44:10;3.30;;;1.20;;
12848;SDS011;6493;50.928;7.172;2023-12-20T15:49:13;2.27;;;1.20;;
12848;SDS011;6493;50.928;7.172;2023-12-20T15:54:21;3.93;;;1.30;;
12848;SDS011;6493;50.928;7.172;2023-12-20T15:59:25;2.23;;;0.90;;
12848;SDS011;6493;50.928;7.172;2023-12-20T16:04:29;2.37;;;1.03;;
12848;SDS011;6493;50.928;7.172;2023-12-20T16:09:34;3.77;;;1.87;;
12848;SDS011;6493;50.928;7.172;2023-12-20T16:14:38;3.23;;;1.60;;
12848;SDS011;6493;50.928;7.172;2023-12-20T16:19:41;2.10;;;1.07;;
12848;SDS011;6493;50.928;7.172;2023-12-20T16:24:47;3.10;;;1.40;;
12848;SDS011;6493;50.928;7.172;2023-12-20T16:29:51;2.37;;;1.37;;
12848;SDS011;6493;50.928;7.172;2023-12-20T16:34:54;1.70;;;1.13;;
12848;SDS011;6493;50.928;7.172;2023-12-20T16:40:00;2.67;;;1.20;;
12848;SDS011;6493;50.928;7.172;2023-12-20T16:45:04;1.97;;;1.30;;
12848;SDS011;6493;50.928;7.172;2023-12-20T16:50:09;3.03;;;1.70;;
12848;SDS011;6493;50.928;7.172;2023-12-20T16:55:15;2.50;;;1.30;;
12848;SDS011;6493;50.928;7.172;2023-12-20T17:00:19;3.67;;;1.67;;
12848;SDS011;6493;50.928;7.172;2023-12-20T17:05:24;3.57;;;1.47;;
12848;SDS011;6493;50.928;7.172;2023-12-20T17:10:29;5.23;;;1.30;;
12848;SDS011;6493;50.928;7.172;2023-12-20T17:15:33;1.87;;;1.20;;
12848;SDS011;6493;50.928;7.172;2023-12-20T17:20:37;2.10;;;1.10;;
12848;SDS011;6493;50.928;7.172;2023-12-20T17:25:42;1.30;;;0.93;;
12848;SDS011;6493;50.928;7.172;2023-12-20T17:30:46;2.37;;;1.60;;
12848;SDS011;6493;50.928;7.172;2023-12-20T17:35:50;4.50;;;1.73;;
12848;SDS011;6493;50.928;7.172;2023-12-20T17:40:58;1.80;;;1.20;;
12848;SDS011;6493;50.928;7.172;2023-12-20T17:46:02;1.03;;;0.80;;
12848;SDS011;6493;50.928;7.172;2023-12-20T17:51:06;2.03;;;1.10;;
12848;SDS011;6493;50.928;7.172;2023-12-20T17:56:11;3.57;;;1.23;;
12848;SDS011;6493;50.928;7.172;2023-12-20T18:01:15;2.07;;;1.00;;
12848;SDS011;6493;50.928;7.172;2023-12-20T18:06:19;4.23;;;1.50;;
12848;SDS011;6493;50.928;7.172;2023-12-20T18:11:26;2.83;;;1.00;;
12848;SDS011;6493;50.928;7.172;2023-12-20T18:16:30;2.40;;;1.20;;
12848;SDS011;6493;50.928;7.172;2023-12-20T18:21:38;2.70;;;1.27;;
12848;SDS011;6493;50.928;7.172;2023-12-20T18:26:43;1.20;;;0.90;;
12848;SDS011;6493;50.928;7.172;2023-12-20T18:31:46;3.07;;;1.20;;
12848;SDS011;6493;50.928;7.172;2023-12-20T18:36:50;3.07;;;1.20;;
12848;SDS011;6493;50.928;7.172;2023-12-20T18:41:55;3.40;;;1.70;;
12848;SDS011;6493;50.928;7.172;2023-12-20T18:46:59;1.90;;;1.20;;
12848;SDS011;6493;50.928;7.172;2023-12-20T18:52:03;4.97;;;1.40;;
12848;SDS011;6493;50.928;7.172;2023-12-20T18:57:09;4.00;;;1.97;;
12848;SDS011;6493;50.928;7.172;2023-12-20T19:02:13;3.17;;;1.50;;
12848;SDS011;6493;50.928;7.172;2023-12-20T19:07:17;4.53;;;1.40;;
12848;SDS011;6493;50.928;7.172;2023-12-20T19:12:23;2.00;;;1.10;;
12848;SDS011;6493;50.928;7.172;2023-12-20T19:17:27;2.50;;;1.20;;
12848;SDS011;6493;50.928;7.172;2023-12-20T19:22:30;2.60;;;1.30;;
12848;SDS011;6493;50.928;7.172;2023-12-20T19:27:37;1.80;;;0.90;;
12848;SDS011;6493;50.928;7.172;2023-12-20T19:32:41;2.93;;;1.13;;
12848;SDS011;6493;50.928;7.172;2023-12-20T19:37:45;1.57;;;1.03;;
12848;SDS011;6493;50.928;7.172;2023-12-20T19:42:50;3.43;;;1.43;;
12848;SDS011;6493;50.928;7.172;2023-12-20T19:47:54;3.20;;;1.17;;
12848;SDS011;6493;50.928;7.172;2023-12-20T19:52:58;3.07;;;1.20;;
12848;SDS011;6493;50.928;7.172;2023-12-20T19:58:03;1.70;;;1.20;;
12848;SDS011;6493;50.928;7.172;2023-12-20T20:03:07;1.43;;;0.93;;
12848;SDS011;6493;50.928;7.172;2023-12-20T20:08:11;2.40;;;0.83;;
12848;SDS011;6493;50.928;7.172;2023-12-20T20:13:16;1.93;;;0.93;;
12848;SDS011;6493;50.928;7.172;2023-12-20T20:18:20;1.60;;;1.00;;
12848;SDS011;6493;50.928;7.172;2023-12-20T20:23:24;3.27;;;1.07;;
12848;SDS011;6493;50.928;7.172;2023-12-20T20:28:29;2.53;;;1.20;;
12848;SDS011;6493;50.928;7.172;2023-12-20T20:33:33;2.67;;;0.93;;
12848;SDS011;6493;50.928;7.172;2023-12-20T20:38:37;1.67;;;0.80;;
12848;SDS011;6493;50.928;7.172;2023-12-20T20:43:42;0.70;;;0.57;;
12848;SDS011;6493;50.928;7.172;2023-12-20T20:48:46;1.23;;;0.60;;
12848;SDS011;6493;50.928;7.172;2023-12-20T20:53:53;1.77;;;0.80;;
12848;SDS011;6493;50.928;7.172;2023-12-20T20:59:14;2.17;;;0.90;;
12848;SDS011;6493;50.928;7.172;2023-12-20T21:04:17;2.73;;;0.90;;
12848;SDS011;6493;50.928;7.172;2023-12-20T21:09:21;1.23;;;0.83;;
12848;SDS011;6493;50.928;7.172;2023-12-20T21:14:26;2.60;;;0.93;;
12848;SDS011;6493;50.928;7.172;2023-12-20T21:19:30;2.10;;;0.80;;
12848;SDS011;6493;50.928;7.172;2023-12-20T21:24:34;2.93;;;0.90;;
12848;SDS011;6493;50.928;7.172;2023-12-20T21:29:39;2.33;;;1.10;;
12848;SDS011;6493;50.928;7.172;2023-12-20T21:34:43;4.00;;;0.70;;
12848;SDS011;6493;50.928;7.172;2023-12-20T21:39:46;1.97;;;0.90;;
12848;SDS011;6493;50.928;7.172;2023-12-20T21:44:53;1.97;;;0.80;;
12848;SDS011;6493;50.928;7.172;2023-12-20T21:49:56;3.20;;;1.17;;
12848;SDS011;6493;50.928;7.172;2023-12-20T21:55:00;3.43;;;1.00;;
12848;SDS011;6493;50.928;7.172;2023-12-20T22:00:07;1.97;;;1.00;;
12848;SDS011;6493;50.928;7.172;2023-12-20T22:05:11;1.90;;;0.90;;
12848;SDS011;6493;50.928;7.172;2023-12-20T22:10:15;2.70;;;0.97;;
12848;SDS011;6493;50.928;7.172;2023-12-20T22:15:20;3.30;;;0.93;;
12848;SDS011;6493;50.928;7.172;2023-12-20T22:20:24;2.67;;;0.93;;
12848;SDS011;6493;50.928;7.172;2023-12-20T22:25:28;3.07;;;0.70;;
12848;SDS011;6493;50.928;7.172;2023-12-20T22:30:34;1.30;;;0.70;;
12848;SDS011;6493;50.928;7.172;2023-12-20T22:35:38;1.10;;;0.80;;
12848;SDS011;6493;50.928;7.172;2023-12-20T22:40:41;2.13;;;0.80;;
12848;SDS011;6493;50.928;7.172;2023-12-20T22:45:47;1.33;;;1.07;;
12848;SDS011;6493;50.928;7.172;2023-12-20T22:50:50;2.30;;;0.80;;
12848;SDS011;6493;50.928;7.172;2023-12-20T22:55:54;0.97;;;0.80;;
12848;SDS011;6493;50.928;7.172;2023-12-20T23:00:59;1.00;;;0.60;;
12848;SDS011;6493;50.928;7.172;2023-12-20T23:06:03;2.10;;;0.93;;
12848;SDS011;6493;50.928;7.172;2023-12-20T23:11:07;1.37;;;0.90;;
12848;SDS011;6493;50.928;7.172;2023-12-20T23:16:15;1.30;;;0.70;;
12848;SDS011;6493;50.928;7.172;2023-12-20T23:21:19;2.33;;;0.80;;
12848;SDS011;6493;50.928;7.172;2023-12-20T23:26:23;2.20;;;0.87;;
12848;SDS011;6493;50.928;7.172;2023-12-20T23:31:28;0.47;;;0.47;;
12848;SDS011;6493;50.928;7.172;2023-12-20T23:36:32;0.60;;;0.50;;
12848;SDS011;6493;50.928;7.172;2023-12-20T23:41:35;0.83;;;0.60;;
12848;SDS011;6493;50.928;7.172;2023-12-20T23:46:40;1.13;;;0.80;;
12848;SDS011;6493;50.928;7.172;2023-12-20T23:51:44;0.60;;;0.60;;
12848;SDS011;6493;50.928;7.172;2023-12-20T23:56:48;0.50;;;0.50;;
